Time;durP1;ratioP1;P1;durP2;ratioP2;P2;SDS_P1;SDS_P2;PMS_P1;PMS_P2;Temp;Humidity;BMP_temperature;BMP_pressure;BME280_temperature;BME280_humidity;BME280_pressure;Samples;Min_cycle;Max_cycle;Signal;HPM_P1;HPM_P2
2023/08/18 00:01:32;;;;;;;10.37;9.37;;;20.80;99.90;;;;;;4954469;28;20623;-78
2023/08/18 00:03:57;;;;;;;9.80;8.80;;;20.80;99.90;;;;;;4920564;29;20596;-78
2023/08/18 00:06:26;;;;;;;9.77;8.87;;;20.70;99.90;;;;;;4953344;28;20204;-78
2023/08/18 00:08:51;;;;;;;8.60;7.80;;;20.70;99.90;;;;;;4967333;28;20624;-78
2023/08/18 00:11:17;;;;;;;10.60;9.60;;;20.70;99.90;;;;;;4967719;28;20203;-78
2023/08/18 00:13:43;;;;;;;10.80;9.70;;;20.70;99.90;;;;;;4952148;28;20271;-78
2023/08/18 00:16:08;;;;;;;9.87;7.63;;;20.70;99.90;;;;;;4960427;28;20180;-78
2023/08/18 00:18:34;;;;;;;9.03;8.33;;;20.70;99.90;;;;;;4962814;28;20179;-78
2023/08/18 00:21:00;;;;;;;11.07;9.97;;;20.60;99.90;;;;;;4972658;28;20256;-78
2023/08/18 00:23:25;;;;;;;9.93;9.03;;;20.60;99.90;;;;;;4970152;28;20572;-78
2023/08/18 00:25:51;;;;;;;10.07;9.03;;;20.60;99.90;;;;;;4952081;28;20662;-78
2023/08/18 00:28:17;;;;;;;10.10;9.10;;;20.60;99.90;;;;;;4963799;28;20207;-78
2023/08/18 00:30:43;;;;;;;10.50;9.60;;;20.60;99.90;;;;;;4963093;28;20284;-78
2023/08/18 00:33:09;;;;;;;11.07;9.57;;;20.50;99.90;;;;;;4963710;28;21157;-78
2023/08/18 00:35:34;;;;;;;13.17;9.40;;;20.60;99.90;;;;;;4962272;28;20273;-78
2023/08/18 00:38:00;;;;;;;9.83;8.93;;;20.60;99.90;;;;;;4938900;28;20179;-78
2023/08/18 00:40:29;;;;;;;11.70;10.00;;;20.50;99.90;;;;;;4963007;28;20619;-78
2023/08/18 00:42:55;;;;;;;10.07;9.17;;;20.50;99.90;;;;;;4966176;28;21189;-78
2023/08/18 00:45:21;;;;;;;9.33;8.47;;;20.50;99.90;;;;;;4951649;28;20188;-78
2023/08/18 00:47:47;;;;;;;10.53;9.60;;;20.50;99.90;;;;;;4951631;28;20187;-78
2023/08/18 00:50:16;;;;;;;9.63;8.83;;;20.50;99.90;;;;;;4951758;28;20654;-78
2023/08/18 00:52:43;;;;;;;10.50;9.60;;;20.50;99.90;;;;;;4971137;28;20595;-78
2023/08/18 00:55:10;;;;;;;10.10;9.10;;;20.50;99.90;;;;;;4956857;28;20596;-78
2023/08/18 00:57:38;;;;;;;10.90;9.90;;;20.40;99.90;;;;;;4951965;28;20606;-78
2023/08/18 01:00:04;;;;;;;10.80;9.70;;;20.40;99.90;;;;;;4954965;28;21002;-77
2023/08/18 01:02:30;;;;;;;10.90;9.87;;;20.40;99.90;;;;;;4968663;28;20775;-78
2023/08/18 01:05:00;;;;;;;10.13;9.27;;;20.40;99.90;;;;;;4960871;28;21006;-77
2023/08/18 01:07:27;;;;;;;11.43;10.47;;;20.40;99.90;;;;;;4958304;28;20199;-78
2023/08/18 01:09:54;;;;;;;10.30;9.30;;;20.30;99.90;;;;;;4952892;28;21011;-78
2023/08/18 01:12:45;;;;;;;10.57;9.57;;;20.30;99.90;;;;;;4951395;28;20950;-77
2023/08/18 01:15:24;;;;;;;12.30;11.20;;;20.30;99.90;;;;;;4947086;29;20639;-77
2023/08/18 01:18:01;;;;;;;12.53;10.00;;;20.30;99.90;;;;;;4946107;28;20588;-77
2023/08/18 01:20:27;;;;;;;11.77;10.67;;;20.30;99.90;;;;;;4967292;28;20622;-78
2023/08/18 01:22:57;;;;;;;11.57;10.47;;;20.30;99.90;;;;;;4948418;29;20632;-77
2023/08/18 01:25:23;;;;;;;11.60;10.60;;;20.20;99.90;;;;;;4938228;28;20595;-77
2023/08/18 01:27:50;;;;;;;11.90;10.90;;;20.20;99.90;;;;;;4939629;28;20662;-77
2023/08/18 01:30:17;;;;;;;11.10;9.93;;;20.20;99.90;;;;;;4947839;28;20622;-77
2023/08/18 01:32:54;;;;;;;12.60;11.50;;;20.20;99.90;;;;;;4960344;28;20576;-78
2023/08/18 01:35:23;;;;;;;11.33;10.23;;;20.20;99.90;;;;;;4950611;28;20601;-78
2023/08/18 01:37:50;;;;;;;13.80;12.60;;;20.20;99.90;;;;;;4944405;28;20643;-77
2023/08/18 01:40:18;;;;;;;10.90;9.93;;;20.20;99.90;;;;;;4966455;28;20607;-77
2023/08/18 01:42:45;;;;;;;13.43;12.03;;;20.10;99.90;;;;;;4951154;28;20640;-77
2023/08/18 01:45:11;;;;;;;12.77;11.30;;;20.10;99.90;;;;;;4954282;28;20599;-77
2023/08/18 01:47:38;;;;;;;12.30;11.10;;;20.10;99.90;;;;;;4954546;28;20588;-77
2023/08/18 01:50:04;;;;;;;13.73;12.53;;;20.10;99.90;;;;;;4968030;28;21227;-77
2023/08/18 01:52:30;;;;;;;12.10;11.00;;;20.10;99.90;;;;;;4980559;28;20595;-77
2023/08/18 01:54:55;;;;;;;13.17;11.90;;;20.10;99.90;;;;;;4967897;28;21008;-77
2023/08/18 01:57:21;;;;;;;13.70;12.50;;;20.10;99.90;;;;;;4966167;28;20176;-77
2023/08/18 01:59:47;;;;;;;13.83;12.63;;;20.10;99.90;;;;;;4954260;28;20299;-77
2023/08/18 02:02:13;;;;;;;13.97;12.60;;;20.00;99.90;;;;;;4954459;28;20735;-77
2023/08/18 02:04:39;;;;;;;12.10;11.03;;;20.00;99.90;;;;;;4971623;28;20184;-78
2023/08/18 02:07:05;;;;;;;12.90;11.70;;;20.00;99.90;;;;;;4923689;29;20655;-78
2023/08/18 02:09:31;;;;;;;13.13;11.97;;;20.00;99.90;;;;;;4951777;28;20173;-78
2023/08/18 02:11:57;;;;;;;12.63;11.33;;;20.00;99.90;;;;;;4954425;28;20581;-77
2023/08/18 02:14:22;;;;;;;12.27;10.97;;;20.00;99.90;;;;;;4962313;28;20687;-77
2023/08/18 02:16:48;;;;;;;11.97;10.87;;;20.00;99.90;;;;;;4954353;28;20240;-77
2023/08/18 02:19:14;;;;;;;12.90;11.70;;;19.90;99.90;;;;;;4936653;28;20176;-78
2023/08/18 02:21:40;;;;;;;13.50;12.10;;;19.90;99.90;;;;;;4973091;28;20203;-77
2023/08/18 02:24:06;;;;;;;12.40;11.30;;;19.90;99.90;;;;;;4959759;28;20603;-77
2023/08/18 02:26:33;;;;;;;12.87;11.70;;;19.90;99.90;;;;;;4956106;28;20283;-78
2023/08/18 02:28:59;;;;;;;13.20;12.00;;;19.90;99.90;;;;;;4956683;28;20674;-77
2023/08/18 02:31:25;;;;;;;13.93;12.53;;;19.90;99.90;;;;;;4953719;28;20674;-78
2023/08/18 02:33:50;;;;;;;13.03;11.83;;;19.90;99.90;;;;;;4961978;28;20181;-78
2023/08/18 02:36:16;;;;;;;14.33;12.83;;;19.90;99.90;;;;;;4960796;28;20183;-78
2023/08/18 02:38:42;;;;;;;14.03;12.77;;;19.80;99.90;;;;;;4954489;28;20239;-78
2023/08/18 02:41:08;;;;;;;16.73;12.50;;;19.80;99.90;;;;;;4948178;29;20727;-78
2023/08/18 02:43:33;;;;;;;14.60;12.47;;;19.80;99.90;;;;;;4959035;28;20210;-78
2023/08/18 02:46:02;;;;;;;12.63;11.43;;;19.80;99.90;;;;;;4953745;28;20584;-78
2023/08/18 02:48:29;;;;;;;14.83;13.40;;;19.80;99.90;;;;;;4961259;28;20218;-78
2023/08/18 02:51:06;;;;;;;14.47;12.97;;;19.80;99.90;;;;;;4957295;28;21081;-78
2023/08/18 02:53:32;;;;;;;12.03;10.13;;;19.80;99.90;;;;;;4965238;28;20992;-78
2023/08/18 02:56:01;;;;;;;13.00;11.80;;;19.80;99.90;;;;;;4957179;28;20587;-78
2023/08/18 02:58:28;;;;;;;12.57;11.37;;;19.80;99.90;;;;;;4964367;28;20595;-78
2023/08/18 03:00:55;;;;;;;15.33;12.73;;;19.80;99.90;;;;;;4966390;28;20627;-77
2023/08/18 03:03:21;;;;;;;14.90;13.40;;;19.80;99.90;;;;;;4957424;28;20646;-78
2023/08/18 03:05:46;;;;;;;13.23;11.80;;;19.80;99.90;;;;;;4953197;28;20678;-77
2023/08/18 03:08:13;;;;;;;13.80;11.53;;;19.70;99.90;;;;;;4953325;28;20982;-78
2023/08/18 03:10:38;;;;;;;14.53;13.13;;;19.70;99.90;;;;;;4953205;28;20196;-78
2023/08/18 03:13:04;;;;;;;14.03;12.63;;;19.70;99.90;;;;;;4931336;29;20596;-78
2023/08/18 03:15:31;;;;;;;12.17;11.03;;;19.70;99.90;;;;;;4953301;28;20559;-78
2023/08/18 03:17:57;;;;;;;14.43;12.80;;;19.70;99.90;;;;;;4956878;28;20594;-77
2023/08/18 03:20:23;;;;;;;13.20;12.00;;;19.70;99.90;;;;;;4972625;28;21203;-78
2023/08/18 03:22:49;;;;;;;15.50;13.90;;;19.70;99.90;;;;;;4971971;28;20730;-78
2023/08/18 03:25:15;;;;;;;15.07;13.00;;;19.70;99.90;;;;;;4956285;28;20726;-78
2023/08/18 03:27:41;;;;;;;12.30;11.10;;;19.70;99.90;;;;;;4966419;28;20660;-78
2023/08/18 03:30:09;;;;;;;14.90;12.90;;;19.60;99.90;;;;;;4936803;29;20192;-77
2023/08/18 03:32:34;;;;;;;15.50;13.47;;;19.60;99.90;;;;;;4952870;28;20591;-78
2023/08/18 03:35:00;;;;;;;19.17;15.83;;;19.60;99.90;;;;;;4965266;28;20579;-77
2023/08/18 03:37:26;;;;;;;17.30;15.47;;;19.60;99.90;;;;;;4972242;28;20194;-77
2023/08/18 03:39:54;;;;;;;15.97;14.37;;;19.60;99.90;;;;;;4973052;28;20668;-77
2023/08/18 03:42:21;;;;;;;20.00;14.27;;;19.60;99.90;;;;;;4972099;28;20231;-78
2023/08/18 03:44:47;;;;;;;16.77;14.20;;;19.60;99.90;;;;;;4956072;28;20670;-77
2023/08/18 03:47:13;;;;;;;17.43;14.60;;;19.60;99.90;;;;;;4971622;28;20682;-77
2023/08/18 03:49:40;;;;;;;18.03;16.13;;;19.60;99.90;;;;;;4955459;28;20216;-77
2023/08/18 03:52:06;;;;;;;21.50;16.00;;;19.60;99.90;;;;;;4971848;28;20599;-77
2023/08/18 03:54:32;;;;;;;18.47;16.57;;;19.60;99.90;;;;;;4972042;28;20594;-77
2023/08/18 03:56:58;;;;;;;15.40;13.80;;;19.60;99.90;;;;;;4957077;28;20179;-77
2023/08/18 03:59:23;;;;;;;21.70;14.90;;;19.60;99.90;;;;;;4971638;28;20634;-77
2023/08/18 04:01:49;;;;;;;16.97;15.20;;;19.60;99.90;;;;;;4971676;28;20211;-77
2023/08/18 04:04:15;;;;;;;18.47;16.40;;;19.60;99.90;;;;;;4971900;28;20592;-77
2023/08/18 04:06:41;;;;;;;16.67;14.87;;;19.60;99.90;;;;;;4971578;28;20602;-77
2023/08/18 04:09:13;;;;;;;17.93;15.53;;;19.60;99.90;;;;;;4972676;28;20644;-77
2023/08/18 04:11:39;;;;;;;16.93;15.10;;;19.60;99.90;;;;;;4955327;28;20619;-77
2023/08/18 04:14:05;;;;;;;16.70;14.07;;;19.60;99.90;;;;;;4972725;28;20590;-77
2023/08/18 04:16:31;;;;;;;15.03;13.57;;;19.60;99.90;;;;;;4971580;28;20168;-77
2023/08/18 04:18:58;;;;;;;18.53;14.90;;;19.60;99.90;;;;;;4967901;28;20612;-77
2023/08/18 04:21:25;;;;;;;20.00;14.73;;;19.60;99.90;;;;;;4959223;28;21103;-77
2023/08/18 04:23:53;;;;;;;15.90;14.27;;;19.60;99.90;;;;;;4952430;28;20639;-77
2023/08/18 04:26:19;;;;;;;17.57;15.63;;;19.60;99.90;;;;;;4958224;28;21027;-77
2023/08/18 04:28:46;;;;;;;19.77;14.63;;;19.60;99.90;;;;;;4940961;29;20672;-77
2023/08/18 04:31:12;;;;;;;19.67;16.80;;;19.60;99.90;;;;;;4952225;28;20717;-77
2023/08/18 04:33:46;;;;;;;17.50;15.70;;;19.60;99.90;;;;;;4961092;28;20587;-77
2023/08/18 04:36:12;;;;;;;14.93;13.33;;;19.60;99.90;;;;;;4920330;29;20611;-77
2023/08/18 04:38:39;;;;;;;18.07;15.13;;;19.70;99.90;;;;;;4968518;28;20598;-77
2023/08/18 04:41:09;;;;;;;22.70;16.40;;;19.70;99.90;;;;;;4971275;28;20627;-77
2023/08/18 04:43:35;;;;;;;21.73;16.93;;;19.70;99.90;;;;;;4954769;28;20694;-78
2023/08/18 04:46:01;;;;;;;20.80;16.33;;;19.70;99.90;;;;;;4952008;28;20603;-77
2023/08/18 04:48:29;;;;;;;19.83;15.63;;;19.70;99.90;;;;;;4951687;28;20949;-77
2023/08/18 04:50:55;;;;;;;20.00;16.70;;;19.70;99.90;;;;;;4951422;28;20636;-77
2023/08/18 04:53:21;;;;;;;20.97;16.87;;;19.70;99.90;;;;;;4952416;28;20187;-77
2023/08/18 04:55:46;;;;;;;18.67;15.53;;;19.80;99.90;;;;;;4962503;28;20187;-78
2023/08/18 04:58:13;;;;;;;20.67;16.70;;;19.80;99.90;;;;;;4958278;28;20180;-77
2023/08/18 05:00:40;;;;;;;20.00;17.00;;;19.90;99.90;;;;;;4959401;28;20627;-77
2023/08/18 05:03:06;;;;;;;20.03;16.03;;;19.90;99.90;;;;;;4940109;28;20207;-77
2023/08/18 05:05:38;;;;;;;20.97;18.63;;;20.00;99.90;;;;;;4963223;28;21158;-78
2023/08/18 05:08:05;;;;;;;24.03;17.83;;;20.00;99.90;;;;;;4952833;28;20945;-77
2023/08/18 05:10:31;;;;;;;19.83;16.70;;;20.00;99.90;;;;;;4951855;28;20615;-76
2023/08/18 05:12:57;;;;;;;19.33;17.20;;;20.10;99.90;;;;;;4951498;28;20589;-77
2023/08/18 05:15:23;;;;;;;20.77;17.67;;;20.10;99.90;;;;;;4952159;28;20972;-78
2023/08/18 05:17:49;;;;;;;19.40;15.87;;;20.20;99.90;;;;;;4961513;28;20192;-78
2023/08/18 05:20:15;;;;;;;23.37;17.50;;;20.20;99.90;;;;;;4973879;28;20623;-78
2023/08/18 05:22:41;;;;;;;18.60;16.10;;;20.30;99.90;;;;;;4965503;28;20728;-78
2023/08/18 05:25:08;;;;;;;18.50;15.50;;;20.30;99.90;;;;;;4955293;28;20640;-77
2023/08/18 05:27:34;;;;;;;20.43;16.37;;;20.40;99.90;;;;;;4965235;28;20198;-77
2023/08/18 05:30:00;;;;;;;20.20;15.90;;;20.40;99.90;;;;;;4959930;28;20642;-78
2023/08/18 05:32:26;;;;;;;17.63;15.03;;;20.50;99.90;;;;;;4967699;28;20588;-77
2023/08/18 05:34:55;;;;;;;22.13;16.33;;;20.60;99.90;;;;;;4956235;28;20686;-78
2023/08/18 05:37:24;;;;;;;17.67;15.77;;;20.60;99.90;;;;;;4961251;28;20172;-79
2023/08/18 05:39:50;;;;;;;16.60;14.50;;;20.70;99.90;;;;;;4956146;28;20611;-78
2023/08/18 05:42:16;;;;;;;19.33;16.40;;;20.80;99.90;;;;;;4962872;28;20745;-78
2023/08/18 05:44:42;;;;;;;20.47;16.20;;;20.90;99.90;;;;;;4977016;28;20186;-79
2023/08/18 05:47:08;;;;;;;19.37;16.30;;;21.00;99.90;;;;;;4967492;28;20586;-78
2023/08/18 05:49:34;;;;;;;17.70;15.90;;;21.10;99.90;;;;;;4958360;28;20592;-78
2023/08/18 05:51:59;;;;;;;19.30;15.00;;;21.30;99.90;;;;;;4955130;28;20572;-78
2023/08/18 05:54:26;;;;;;;21.17;17.23;;;21.40;99.90;;;;;;4956435;28;20180;-77
2023/08/18 05:56:51;;;;;;;17.47;14.77;;;21.50;99.90;;;;;;4956307;28;20192;-78
2023/08/18 05:59:17;;;;;;;18.43;13.87;;;21.70;99.90;;;;;;4955516;28;20594;-78
2023/08/18 06:01:43;;;;;;;17.53;15.17;;;21.80;99.90;;;;;;4955797;28;20196;-78
2023/08/18 06:04:09;;;;;;;16.73;14.90;;;21.90;99.90;;;;;;4947791;29;20588;-78
2023/08/18 06:06:35;;;;;;;13.80;12.40;;;22.00;99.90;;;;;;4954210;28;20251;-78
2023/08/18 06:09:01;;;;;;;15.47;13.70;;;22.10;99.90;;;;;;4963769;28;20203;-78
2023/08/18 06:11:27;;;;;;;15.13;13.63;;;22.30;99.90;;;;;;4957341;28;20200;-78
2023/08/18 06:13:53;;;;;;;15.30;13.63;;;22.40;99.90;;;;;;4949401;28;20594;-78
2023/08/18 06:16:19;;;;;;;20.77;14.13;;;22.60;99.90;;;;;;4961534;28;20580;-78
2023/08/18 06:18:44;;;;;;;16.07;13.53;;;22.80;99.90;;;;;;4953849;28;20184;-77
2023/08/18 06:21:10;;;;;;;13.00;10.63;;;22.90;99.90;;;;;;4955865;28;20282;-78
2023/08/18 06:23:36;;;;;;;13.73;12.33;;;23.10;99.90;;;;;;4954804;28;20219;-78
2023/08/18 06:26:02;;;;;;;15.23;13.80;;;23.10;99.90;;;;;;4955748;28;20576;-77
2023/08/18 06:28:28;;;;;;;20.53;12.70;;;23.20;99.90;;;;;;4967705;28;20180;-77
2023/08/18 06:31:03;;;;;;;15.10;13.60;;;23.30;99.90;;;;;;4937927;28;20697;-76
2023/08/18 06:33:29;;;;;;;13.13;11.03;;;23.70;99.90;;;;;;4938503;28;20614;-77
2023/08/18 06:35:54;;;;;;;14.87;12.47;;;24.30;99.90;;;;;;4955787;28;20592;-76
2023/08/18 06:38:20;;;;;;;14.50;13.00;;;25.10;99.90;;;;;;4953713;28;20593;-76
2023/08/18 06:40:46;;;;;;;11.10;10.00;;;25.80;99.90;;;;;;4953960;28;20243;-77
2023/08/18 06:43:12;;;;;;;12.60;11.40;;;26.60;99.90;;;;;;4953763;28;20682;-76
2023/08/18 06:45:37;;;;;;;10.67;9.30;;;27.40;99.90;;;;;;4953881;28;20197;-79
2023/08/18 06:48:03;;;;;;;8.93;8.07;;;28.20;99.90;;;;;;4972985;28;20688;-79
2023/08/18 06:50:29;;;;;;;8.63;7.13;;;29.00;99.90;;;;;;4965428;28;20640;-78
2023/08/18 06:52:54;;;;;;;8.37;7.57;;;29.70;99.90;;;;;;4965400;28;20592;-77
2023/08/18 06:55:21;;;;;;;8.70;7.90;;;30.40;99.90;;;;;;4963563;28;20262;-78
2023/08/18 06:57:47;;;;;;;7.90;7.20;;;31.20;99.90;;;;;;4963794;28;20621;-79
2023/08/18 07:00:13;;;;;;;7.40;6.80;;;31.80;99.90;;;;;;4955291;28;20279;-77
2023/08/18 07:02:39;;;;;;;8.23;7.40;;;32.40;99.90;;;;;;4945181;28;20203;-76
2023/08/18 07:05:06;;;;;;;7.60;6.50;;;32.90;99.90;;;;;;4954922;28;20948;-76
2023/08/18 07:07:33;;;;;;;7.13;6.53;;;33.40;99.90;;;;;;4976374;28;20175;-77
2023/08/18 07:09:59;;;;;;;8.10;7.30;;;33.90;99.90;;;;;;4964374;28;20624;-77
2023/08/18 07:12:25;;;;;;;7.43;6.80;;;34.40;99.90;;;;;;4958778;28;20595;-76
2023/08/18 07:14:50;;;;;;;8.10;7.30;;;34.70;99.90;;;;;;4963784;28;20199;-77
2023/08/18 07:17:17;;;;;;;8.40;7.60;;;35.20;99.90;;;;;;4969277;28;20231;-76
2023/08/18 07:19:43;;;;;;;9.00;8.10;;;35.50;99.90;;;;;;4952821;28;20196;-74
2023/08/18 07:22:09;;;;;;;7.90;7.20;;;35.70;99.90;;;;;;4954352;28;20636;-74
2023/08/18 07:24:35;;;;;;;9.63;8.77;;;36.00;99.90;;;;;;4953215;28;20598;-76
2023/08/18 07:27:01;;;;;;;8.03;7.33;;;36.10;99.90;;;;;;4969166;28;20680;-75
2023/08/18 07:29:27;;;;;;;9.43;7.93;;;36.00;99.90;;;;;;4971003;28;20227;-76
2023/08/18 07:31:55;;;;;;;8.90;8.10;;;35.80;99.90;;;;;;4967209;28;20179;-76
2023/08/18 07:34:21;;;;;;;8.37;7.60;;;35.80;99.90;;;;;;4954394;28;20989;-76
2023/08/18 07:36:46;;;;;;;8.87;8.03;;;35.70;99.90;;;;;;4969446;28;20586;-76
2023/08/18 07:39:12;;;;;;;7.93;7.23;;;35.80;99.90;;;;;;4971598;28;20176;-75
2023/08/18 07:41:41;;;;;;;5.60;4.87;;;35.80;99.90;;;;;;4966014;28;20665;-76
2023/08/18 07:44:07;;;;;;;5.20;4.70;;;35.70;99.90;;;;;;4977003;28;20535;-76
2023/08/18 07:46:34;;;;;;;6.00;3.70;;;35.40;99.90;;;;;;4961401;28;21261;-76
2023/08/18 07:49:00;;;;;;;3.60;3.23;;;35.00;99.90;;;;;;4972938;28;20645;-76
2023/08/18 07:51:27;;;;;;;9.83;3.00;;;34.90;99.90;;;;;;4967541;28;20646;-76
2023/08/18 07:53:53;;;;;;;3.40;2.80;;;34.70;99.90;;;;;;4956200;28;20595;-75
2023/08/18 07:56:19;;;;;;;3.27;3.07;;;34.30;99.90;;;;;;4969368;28;20588;-75
2023/08/18 07:58:44;;;;;;;4.27;3.13;;;33.90;99.90;;;;;;4955025;28;20184;-76
2023/08/18 08:01:10;;;;;;;3.53;3.07;;;33.70;99.90;;;;;;4957770;28;20214;-75
2023/08/18 08:03:36;;;;;;;6.97;3.60;;;33.50;99.90;;;;;;4973284;28;20748;-76
2023/08/18 08:06:04;;;;;;;5.07;4.57;;;33.60;99.90;;;;;;4970227;28;20565;-75
2023/08/18 08:08:30;;;;;;;5.13;4.30;;;33.70;99.90;;;;;;4963965;28;20191;-75
2023/08/18 08:10:57;;;;;;;8.87;4.10;;;33.70;99.90;;;;;;4971326;28;20614;-76
2023/08/18 08:13:23;;;;;;;5.13;4.23;;;33.70;99.90;;;;;;4967692;28;20595;-76
2023/08/18 08:15:49;;;;;;;5.53;4.10;;;33.50;99.90;;;;;;4965126;28;20592;-75
2023/08/18 08:18:17;;;;;;;4.97;4.40;;;33.60;99.90;;;;;;4974293;28;20587;-76
2023/08/18 08:20:43;;;;;;;5.40;4.90;;;34.00;99.90;;;;;;4969864;28;20635;-76
2023/08/18 08:23:08;;;;;;;5.70;4.57;;;34.00;99.90;;;;;;4952934;28;20627;-76
2023/08/18 08:25:34;;;;;;;6.20;5.60;;;34.10;99.90;;;;;;4959576;28;20632;-76
2023/08/18 08:28:02;;;;;;;6.40;5.10;;;34.00;99.90;;;;;;4973096;28;20549;-75
2023/08/18 08:30:31;;;;;;;5.67;5.00;;;33.70;99.90;;;;;;4966584;28;20699;-75
2023/08/18 08:32:57;;;;;;;6.50;5.90;;;33.30;99.90;;;;;;4962275;28;21141;-75
2023/08/18 08:35:23;;;;;;;6.60;6.00;;;32.80;99.90;;;;;;4961219;28;20589;-75
2023/08/18 08:37:49;;;;;;;7.13;6.50;;;32.30;99.90;;;;;;4945930;28;20623;-76
2023/08/18 08:40:19;;;;;;;7.07;6.30;;;31.90;99.90;;;;;;4955015;28;20731;-76
2023/08/18 08:42:47;;;;;;;7.40;6.30;;;31.40;99.90;;;;;;4969812;28;20297;-76
2023/08/18 08:45:13;;;;;;;8.03;5.93;;;31.10;99.90;;;;;;4981722;28;20596;-76
2023/08/18 08:47:40;;;;;;;7.57;6.87;;;31.20;99.90;;;;;;4970736;28;20588;-77
2023/08/18 08:50:07;;;;;;;6.97;6.17;;;31.30;99.90;;;;;;4980515;28;20213;-76
2023/08/18 08:52:38;;;;;;;7.20;6.57;;;31.10;99.90;;;;;;4971445;28;20659;-78
2023/08/18 08:55:06;;;;;;;6.80;6.23;;;31.10;99.90;;;;;;4972339;28;20616;-77
2023/08/18 08:57:32;;;;;;;6.37;5.77;;;31.20;99.90;;;;;;4974851;28;20608;-77
2023/08/18 08:59:59;;;;;;;7.43;6.70;;;31.40;99.90;;;;;;4968529;28;20626;-77
2023/08/18 09:02:25;;;;;;;6.53;5.93;;;31.50;99.90;;;;;;4979758;28;20639;-77
2023/08/18 09:04:51;;;;;;;6.77;6.17;;;31.50;99.90;;;;;;4967485;28;20620;-78
2023/08/18 09:07:17;;;;;;;7.27;6.57;;;31.70;99.90;;;;;;4966870;28;20580;-77
2023/08/18 09:09:43;;;;;;;7.33;6.63;;;32.10;99.90;;;;;;4965498;28;20579;-80
2023/08/18 09:12:10;;;;;;;7.40;6.33;;;32.40;99.90;;;;;;4955461;28;20244;-80
2023/08/18 09:14:40;;;;;;;7.10;6.40;;;32.60;99.90;;;;;;4956972;28;20587;-80
2023/08/18 09:17:07;;;;;;;6.30;5.70;;;33.10;99.90;;;;;;4963988;28;20653;-80
2023/08/18 09:19:33;;;;;;;5.70;5.23;;;33.50;99.90;;;;;;4972932;28;20575;-80
2023/08/18 09:22:00;;;;;;;7.70;7.03;;;34.10;99.90;;;;;;4971695;28;20645;-81
2023/08/18 09:24:29;;;;;;;6.10;5.70;;;34.60;99.90;;;;;;4982622;28;20590;-78
2023/08/18 09:27:05;;;;;;;7.20;6.50;;;35.20;99.90;;;;;;4980391;28;20598;-77
2023/08/18 09:29:32;;;;;;;6.13;5.40;;;35.60;99.90;;;;;;4985290;28;20610;-77
2023/08/18 09:31:58;;;;;;;7.23;5.30;;;35.70;99.90;;;;;;4966012;28;20590;-78
2023/08/18 09:34:24;;;;;;;5.30;4.90;;;36.00;99.90;;;;;;4976380;28;21065;-77
2023/08/18 09:36:56;;;;;;;5.00;4.50;;;36.20;99.70;;;;;;4968858;28;20200;-78
2023/08/18 09:39:24;;;;;;;5.20;4.70;;;36.60;99.60;;;;;;4972114;28;20579;-77
2023/08/18 09:41:51;;;;;;;5.10;4.30;;;37.00;98.00;;;;;;4968645;28;20587;-77
2023/08/18 09:44:22;;;;;;;3.90;3.20;;;37.20;97.50;;;;;;4974507;28;20591;-76
2023/08/18 09:46:55;;;;;;;6.50;3.77;;;37.70;97.50;;;;;;4973761;28;20597;-77
2023/08/18 09:49:22;;;;;;;4.83;4.17;;;38.00;95.00;;;;;;4967892;28;20575;-76
2023/08/18 09:52:08;;;;;;;4.17;3.87;;;38.00;94.60;;;;;;4934539;29;20602;-77
2023/08/18 09:54:44;;;;;;;3.87;3.57;;;38.30;94.90;;;;;;4954045;28;20687;-76
2023/08/18 09:57:17;;;;;;;3.93;3.63;;;38.70;94.00;;;;;;4972053;28;20587;-77
2023/08/18 09:59:54;;;;;;;4.93;4.50;;;39.10;93.30;;;;;;4961403;28;20674;-77
2023/08/18 10:02:26;;;;;;;3.93;3.63;;;39.40;92.10;;;;;;4976448;28;20830;-77
2023/08/18 10:04:53;;;;;;;5.70;5.20;;;39.60;91.90;;;;;;4974069;28;20617;-76
2023/08/18 10:07:19;;;;;;;3.80;3.50;;;39.70;90.80;;;;;;4970970;28;20595;-76
2023/08/18 10:09:46;;;;;;;3.70;3.40;;;39.80;89.60;;;;;;4978754;28;20734;-76
2023/08/18 10:12:12;;;;;;;5.47;5.07;;;39.90;88.70;;;;;;4959939;28;20592;-76
2023/08/18 10:14:38;;;;;;;4.10;3.70;;;39.70;85.20;;;;;;4979458;28;20603;-79
2023/08/18 10:17:05;;;;;;;4.40;4.00;;;39.40;84.30;;;;;;4976155;28;20188;-80
2023/08/18 10:20:00;;;;;;;5.63;4.37;;;39.30;83.30;;;;;;4992006;28;20988;-81
2023/08/18 10:22:28;;;;;;;4.20;3.50;;;39.30;83.70;;;;;;4983707;28;20579;-79
2023/08/18 10:24:55;;;;;;;4.03;3.17;;;39.30;82.80;;;;;;4991201;28;20582;-79
2023/08/18 10:27:27;;;;;;;4.40;3.50;;;39.00;81.00;;;;;;4987072;28;20592;-79
2023/08/18 10:30:07;;;;;;;4.57;2.97;;;38.80;79.70;;;;;;4979989;28;20632;-78
2023/08/18 10:32:33;;;;;;;3.37;3.07;;;38.80;79.60;;;;;;4980361;28;20627;-79
2023/08/18 10:35:28;;;;;;;2.80;2.57;;;38.60;79.40;;;;;;4984104;28;20642;-79
2023/08/18 10:38:03;;;;;;;3.70;3.40;;;38.80;81.30;;;;;;4949596;28;20159;-79
2023/08/18 10:40:31;;;;;;;3.27;2.67;;;38.90;79.70;;;;;;4986714;28;20690;-79
2023/08/18 10:43:04;;;;;;;7.93;3.93;;;38.70;79.10;;;;;;4970777;28;21196;-76
2023/08/18 10:45:30;;;;;;;3.90;3.60;;;38.70;79.10;;;;;;4967779;28;20575;-76
2023/08/18 10:48:00;;;;;;;3.57;3.27;;;38.70;77.80;;;;;;4965018;28;21207;-76
2023/08/18 10:50:28;;;;;;;3.77;3.47;;;38.40;78.00;;;;;;4958431;28;20638;-76
2023/08/18 10:52:56;;;;;;;3.10;2.80;;;38.30;78.50;;;;;;4961836;28;20642;-76
2023/08/18 10:55:23;;;;;;;3.13;2.70;;;37.90;77.70;;;;;;4965717;28;20618;-78
2023/08/18 10:57:49;;;;;;;3.53;3.23;;;37.80;78.80;;;;;;4974529;28;20579;-78
2023/08/18 11:00:17;;;;;;;3.40;3.10;;;37.80;79.80;;;;;;4980923;28;20986;-78
2023/08/18 11:02:49;;;;;;;4.20;3.80;;;37.80;78.90;;;;;;4968324;28;20525;-78
2023/08/18 11:05:19;;;;;;;3.33;3.03;;;37.60;77.00;;;;;;4962997;28;20604;-78
2023/08/18 11:07:46;;;;;;;4.50;4.00;;;37.40;78.30;;;;;;4961789;28;20598;-77
2023/08/18 11:10:19;;;;;;;4.50;3.63;;;37.00;77.00;;;;;;4971750;28;20623;-77
2023/08/18 11:12:46;;;;;;;3.87;3.10;;;36.80;77.90;;;;;;4965640;28;20643;-77
2023/08/18 11:15:13;;;;;;;4.50;3.47;;;36.70;79.70;;;;;;4972304;28;20599;-77
2023/08/18 11:17:40;;;;;;;4.63;3.40;;;36.60;79.60;;;;;;4964170;28;20605;-78
2023/08/18 11:20:07;;;;;;;4.67;3.63;;;36.50;79.10;;;;;;4962727;28;20646;-77
2023/08/18 11:22:41;;;;;;;4.50;3.67;;;36.30;80.40;;;;;;4966486;28;20649;-77
2023/08/18 11:25:08;;;;;;;5.03;3.43;;;36.40;80.80;;;;;;4956390;28;20602;-77
2023/08/18 11:27:35;;;;;;;3.93;3.63;;;36.40;80.90;;;;;;4964108;28;20591;-77
2023/08/18 11:30:04;;;;;;;5.00;2.87;;;36.20;80.20;;;;;;4974431;28;20610;-77
2023/08/18 11:32:30;;;;;;;3.60;3.30;;;36.20;81.40;;;;;;4975827;28;20624;-78
2023/08/18 11:34:56;;;;;;;5.17;3.43;;;36.30;82.10;;;;;;4972181;28;20594;-78
2023/08/18 11:37:23;;;;;;;3.50;3.10;;;36.30;81.70;;;;;;4964777;28;20590;-77
2023/08/18 11:39:49;;;;;;;3.93;3.53;;;36.30;81.60;;;;;;4973192;28;20622;-78
2023/08/18 11:42:17;;;;;;;3.43;3.13;;;36.30;81.20;;;;;;4974578;28;20598;-78
2023/08/18 11:44:44;;;;;;;3.57;3.27;;;36.10;81.60;;;;;;4968528;28;20651;-78
2023/08/18 11:47:11;;;;;;;3.63;3.33;;;35.90;81.10;;;;;;4966459;28;20646;-77
2023/08/18 11:49:37;;;;;;;4.43;4.13;;;35.90;81.70;;;;;;4969825;28;20614;-77
2023/08/18 11:52:04;;;;;;;4.23;3.83;;;35.60;80.70;;;;;;4957853;28;20603;-77
2023/08/18 11:54:35;;;;;;;4.60;3.33;;;35.30;80.80;;;;;;4957295;28;20261;-77
2023/08/18 11:57:05;;;;;;;3.63;3.27;;;35.10;81.70;;;;;;4972921;28;20591;-78
2023/08/18 11:59:32;;;;;;;4.23;3.83;;;34.90;82.40;;;;;;4977139;28;20950;-78
2023/08/18 12:02:04;;;;;;;5.13;3.70;;;34.80;82.90;;;;;;4969019;28;20575;-78
2023/08/18 12:04:31;;;;;;;3.23;2.93;;;34.60;83.60;;;;;;4959969;29;20647;-78
2023/08/18 12:06:57;;;;;;;3.93;3.60;;;34.70;85.20;;;;;;4938602;28;20610;-76
2023/08/18 12:09:23;;;;;;;3.23;2.90;;;34.70;85.80;;;;;;4970703;28;20588;-76
2023/08/18 12:11:50;;;;;;;4.17;3.57;;;34.80;86.70;;;;;;4956048;28;20619;-76
2023/08/18 12:14:17;;;;;;;3.10;2.80;;;34.90;86.90;;;;;;4953892;28;20635;-77
2023/08/18 12:16:43;;;;;;;3.80;3.50;;;35.00;87.30;;;;;;4968156;28;21273;-77
2023/08/18 12:19:10;;;;;;;4.37;3.93;;;34.90;86.60;;;;;;4970184;28;20596;-77
2023/08/18 12:21:36;;;;;;;3.60;3.30;;;34.90;86.40;;;;;;4973561;28;20988;-77
2023/08/18 12:24:05;;;;;;;3.37;3.07;;;34.80;86.60;;;;;;4956621;28;20638;-77
2023/08/18 12:26:34;;;;;;;3.60;3.13;;;34.80;87.30;;;;;;4966895;28;20196;-77
2023/08/18 12:29:03;;;;;;;3.50;3.20;;;34.90;88.10;;;;;;4992543;28;20590;-77
2023/08/18 12:31:30;;;;;;;3.70;3.30;;;35.00;89.70;;;;;;4976084;28;20615;-77
2023/08/18 12:33:56;;;;;;;4.97;3.90;;;35.20;89.30;;;;;;4965168;28;20729;-77
2023/08/18 12:36:22;;;;;;;6.60;3.23;;;35.20;89.00;;;;;;4960175;28;21152;-76
2023/08/18 12:38:49;;;;;;;3.80;3.33;;;35.10;88.40;;;;;;4970749;28;20710;-77